Aviation Digital Data Service (ADDS)

Output produced by TAFs form (1525 UTC 19 January 2018)
found at http://aviationweather.gov/adds/tafs/
 
KPOC 191447Z 00000KT 3/4SM BR OVC009 09/09 A3005
KFUL 191453Z 09004KT 6SM BR OVC022 14/12 A3001 RMK AO2 SLP162 T01390122 53003
KBUR 191505Z 13007KT 3SM BR OVC016 14/13 A3001 RMK AO2 T01390128
KBUR 191501Z 1915/2012 VRB03KT 4SM BR OVC012 
     FM191700 17008KT P6SM BKN015 BKN035 
     FM192300 23008KT P6SM BKN050 
     FM200200 32008KT P6SM BKN050 
     FM200600 34010KT P6SM SCT050
       
KONT 191453Z 27003KT 4SM HZ FEW009 FEW200 SCT250 11/08 A3002 RMK AO2 SLP161 VIS SW 2 T01060078 53003
KONT 191441Z 1915/2018 VRB04KT 5SM BR SCT250 
     FM191600 VRB04KT 5SM BR BKN009 
     FM191900 24008KT P6SM SCT015 OVC020 
     FM192300 25014G22KT P6SM VCSH SCT012 BKN025 OVC040 
     FM200500 25008KT P6SM SCT025 BKN040
       
KCNO 191507Z 00000KT 3/4SM BR VV017 09/08 A3004 RMK AO2 T00940083
KAJO 191519Z AUTO 00000KT 1/2SM -RA FG VV013 06/05 A3003 RMK AO2 P0000
KLGB 191453Z 00000KT 5SM BR OVC018 15/13 A3002 RMK AO2 SLP164 T01500133 53002
KLGB 191324Z 1913/2012 VRB03KT 5SM BR OVC015 
     FM191700 22007KT P6SM BKN025 BKN050 
     FM192200 28012KT P6SM BKN050 
     FM200600 32012KT P6SM SCT050
       
KTOA 191448Z 00000KT 4SM BR FEW008 OVC010 12/11 A3002
KHHR 191508Z 00000KT 10SM SCT011 OVC022 15/13 A3002 RMK AO2 T01500133 $
KLAX 191453Z 11005KT 7SM SCT009 OVC010 14/13 A3001 RMK AO2 SLP163 SCT V BKN T01440133 53001 $
KLAX 191501Z 1915/2018 VRB03KT P6SM OVC010 
     FM191800 23007KT P6SM BKN025 BKN050 
     FM192100 27012KT P6SM BKN050 
     FM200400 30010KT P6SM BKN050 
     FM200900 34015KT P6SM SKC 
     FM201500 34008KT P6SM SKC
       
KAVX 191520Z AUTO 30003KT 3SM BR 11/11 A3002 RMK AO2 T01110111
KSMO 191451Z 00000KT 10SM OVC015 14/13 A3001 RMK AO2 SLP162 T01440128 51004
KSMO 191422Z 1914/2012 VRB03KT P6SM OVC010 
     FM192000 24007KT P6SM BKN025 BKN050 
     FM200400 VRB03KT P6SM BKN050 
     FM200800 36010KT P6SM SKC
       
KCMA 191455Z 10SM OVC017 14/11 A3000 RMK AO2 SLP167 T01390111 53003
KCMA 191134Z 1912/2012 VRB03KT P6SM OVC015 
     FM191500 28007KT P6SM VCSH BKN015 OVC025 
     FM192000 26015G23KT P6SM SCT035 
     FM200300 32012KT P6SM SCT035 
     FM200900 03010KT P6SM SKC
       
KOXR 191506Z 03005KT 10SM BKN015 13/11 A3001 RMK AO2 T01330111
KOXR 191416Z 1914/2012 04007KT P6SM BKN015 BKN200 
     FM191600 28008KT P6SM SCT015 OVC035 
     FM192000 28015G25KT P6SM SCT035 
     FM200300 28012KT P6SM SCT035 
     FM200900 30006KT P6SM SKC
       
KRAL 191522Z 28003KT 2 1/2SM BR SCT200 09/08 A3002 RMK AO2 T00890083
KRIV 191458Z AUTO 00000KT 8SM CLR 07/07 A3001 RMK AO2 SLP162 T00650065 55002
TAF KRIV 191201Z 1912/2018 VRB04KT 9999 BKN250 QNH2998INS 
     BECMG 1913/1914 15006KT 9999 FEW007 SCT020 BKN250 QNH2996INS 
     BECMG 1920/1921 15009KT 9999 VCSH SCT020 BKN250 QNH2991INS 
     TEMPO 1921/2005 21012KT 9000 -RA BKN015 
     BECMG 2014/2015 32009KT 9999 NSW FEW150 SCT250 QNH2999INS TX15/1921Z TN03/2012Z
       
KF70 191515Z AUTO 00000KT M1/4SM OVC002 08/08 A3002 RMK AO1
KRNM 191453Z AUTO 09004KT M1/4SM FG VV001 07/07 A3002 RMK AO2 SLP162 T00720072 58006 $
KCRQ 191504Z AUTO 09004KT 2 1/2SM BR BKN016 12/11 A3001 RMK AO2 T01170111
KCRQ 191515Z 1915/2012 VRB05KT 3SM BR OVC016 
     FM192100 26010KT P6SM VCSH BKN025 OVC040 
     FM200600 23005KT P6SM FEW025 SCT040
       
KOKB 191452Z AUTO 03003KT 4SM BR OVC019 11/09 A3001 RMK AO2 SLP162 T01060094 56005
KIZA 191515Z AUTO 24004KT 10SM BKN011 OVC047 11/10 A3005 RMK AO2